Time;durP1;ratioP1;P1;durP2;ratioP2;P2;SDS_P1;SDS_P2;PMS_P1;PMS_P2;Temp;Humidity;BMP_temperature;BMP_pressure;BME280_temperature;BME280_humidity;BME280_pressure;Samples;Min_cycle;Max_cycle;Signal;HPM_P1;HPM_P2
2021/05/22 00:00:23;;;;;;;16.80;4.63;;;;;;;10.23;79.05;98822.97;5120114;28;20028;-65
2021/05/22 00:02:48;;;;;;;19.40;4.35;;;;;;;10.14;78.96;98819.75;5104549;28;20032;-65
2021/05/22 00:05:14;;;;;;;13.35;3.88;;;;;;;10.14;79.13;98814.56;5102396;28;20024;-66
2021/05/22 00:07:40;;;;;;;15.88;5.63;;;;;;;10.14;79.11;98803.38;5119850;28;20027;-65
2021/05/22 00:10:10;;;;;;;21.90;4.07;;;;;;;10.19;79.13;98817.06;5119869;28;20023;-65
2021/05/22 00:12:36;;;;;;;15.65;3.78;;;;;;;10.23;78.88;98815.19;5120029;28;20080;-66
2021/05/22 00:15:03;;;;;;;22.27;3.83;;;;;;;10.22;78.90;98808.31;5104177;28;20024;-66
2021/05/22 00:17:28;;;;;;;19.63;3.72;;;;;;;10.27;78.86;98814.22;5104136;28;20032;-66
2021/05/22 00:19:53;;;;;;;12.82;3.22;;;;;;;10.28;78.78;98810.69;5104118;28;20023;-67
2021/05/22 00:22:19;;;;;;;16.15;4.32;;;;;;;10.29;78.54;98814.97;5103945;28;20031;-66
2021/05/22 00:24:44;;;;;;;9.48;3.05;;;;;;;10.40;78.32;98815.47;5103961;28;20350;-67
2021/05/22 00:27:09;;;;;;;19.35;3.92;;;;;;;10.28;78.53;98814.16;5103953;28;20043;-67
2021/05/22 00:29:35;;;;;;;6.30;2.60;;;;;;;10.21;78.48;98806.63;5119699;28;20031;-67
2021/05/22 00:32:00;;;;;;;12.07;2.50;;;;;;;10.26;78.52;98804.72;5119468;28;20452;-67
2021/05/22 00:34:25;;;;;;;15.70;4.30;;;;;;;10.24;78.66;98811.72;5103844;28;20047;-65
2021/05/22 00:36:51;;;;;;;16.75;3.78;;;;;;;10.23;78.48;98810.00;5103774;28;20023;-66
2021/05/22 00:39:17;;;;;;;12.52;3.92;;;;;;;10.14;78.79;98790.41;5103675;28;20051;-66
2021/05/22 00:41:42;;;;;;;16.20;5.05;;;;;;;10.13;78.93;98807.72;5119141;28;20020;-66
2021/05/22 00:44:08;;;;;;;15.45;4.22;;;;;;;10.15;78.81;98803.31;5103902;28;20028;-66
2021/05/22 00:46:34;;;;;;;14.10;4.20;;;;;;;10.15;78.77;98798.16;5103836;28;20027;-66
2021/05/22 00:48:59;;;;;;;21.70;4.13;;;;;;;10.12;78.81;98803.44;5103911;28;20143;-66
2021/05/22 00:51:24;;;;;;;16.67;4.53;;;;;;;10.17;78.58;98798.09;5103515;28;20039;-66
2021/05/22 00:53:50;;;;;;;20.75;4.85;;;;;;;10.14;78.65;98804.22;5103518;28;20039;-67
2021/05/22 00:56:15;;;;;;;20.67;4.63;;;;;;;10.15;78.61;98794.69;5101988;28;20040;-66
2021/05/22 00:58:42;;;;;;;16.35;4.13;;;;;;;10.14;78.62;98801.63;5103564;28;20028;-66
2021/05/22 01:01:08;;;;;;;18.13;4.00;;;;;;;10.05;78.88;98794.13;5103239;28;20092;-65
2021/05/22 01:03:39;;;;;;;20.77;5.70;;;;;;;10.07;78.92;98794.94;5103678;28;20031;-65
2021/05/22 01:06:11;;;;;;;13.73;3.95;;;;;;;10.04;78.76;98797.63;5103428;28;20407;-65
2021/05/22 01:08:37;;;;;;;13.27;3.97;;;;;;;10.04;78.84;98790.72;5103354;28;20226;-65
2021/05/22 01:11:10;;;;;;;17.73;3.83;;;;;;;9.94;79.18;98789.31;5103481;28;20044;-65
2021/05/22 01:13:37;;;;;;;15.05;3.85;;;;;;;10.00;79.11;98798.66;5103717;28;20028;-65
2021/05/22 01:16:03;;;;;;;8.80;3.50;;;;;;;10.00;79.08;98790.88;5103372;28;20032;-65
2021/05/22 01:18:30;;;;;;;12.30;3.40;;;;;;;10.01;79.10;98793.41;5107577;28;20030;-66
2021/05/22 01:20:58;;;;;;;21.30;4.35;;;;;;;10.02;79.26;98794.25;5107350;28;20028;-66
2021/05/22 01:23:32;;;;;;;12.57;3.63;;;;;;;10.02;79.07;98792.50;5107431;28;20031;-66
2021/05/22 01:25:58;;;;;;;25.63;4.63;;;;;;;10.01;79.21;98797.72;5107550;28;20020;-66
2021/05/22 01:28:24;;;;;;;13.98;3.72;;;;;;;10.06;79.14;98793.25;5107706;28;20016;-65
2021/05/22 01:30:49;;;;;;;19.95;4.82;;;;;;;10.06;79.26;98784.63;5107294;28;20601;-63
2021/05/22 01:33:15;;;;;;;13.30;3.65;;;;;;;10.02;79.61;98784.72;5107423;28;20028;-63
2021/05/22 01:35:41;;;;;;;14.48;4.32;;;;;;;9.95;80.28;98792.75;5107047;28;20027;-63
2021/05/22 01:38:08;;;;;;;17.33;4.28;;;;;;;9.91;80.24;98777.28;5107195;28;20028;-63
2021/05/22 01:40:34;;;;;;;16.90;4.05;;;;;;;9.94;80.34;98785.84;5107293;28;20020;-63
2021/05/22 01:42:59;;;;;;;18.85;3.75;;;;;;;9.88;80.63;98776.53;5107110;28;20035;-64
2021/05/22 01:45:53;;;;;;;11.10;3.45;;;;;;;9.88;80.83;98784.31;5122767;28;20020;-62
2021/05/22 01:48:22;;;;;;;12.40;3.83;;;;;;;9.85;80.80;98782.69;5106037;28;20146;-61
2021/05/22 01:50:54;;;;;;;16.63;4.40;;;;;;;9.83;81.02;98779.28;5106867;28;20032;-61
2021/05/22 01:53:20;;;;;;;16.50;4.03;;;;;;;9.86;80.97;98779.19;5106790;28;20044;-62
2021/05/22 01:55:47;;;;;;;14.57;4.20;;;;;;;9.85;81.19;98772.31;5106469;28;20042;-62
2021/05/22 01:58:12;;;;;;;24.70;4.15;;;;;;;9.79;81.21;98762.13;5106841;28;20031;-62
2021/05/22 02:00:39;;;;;;;15.15;3.85;;;;;;;9.78;81.34;98763.88;5105262;28;20019;-63
2021/05/22 02:03:12;;;;;;;13.88;4.13;;;;;;;9.81;81.45;98764.69;5106707;28;20020;-62
2021/05/22 02:05:39;;;;;;;12.27;4.43;;;;;;;9.75;81.60;98761.38;5106743;28;20024;-62
2021/05/22 02:08:14;;;;;;;18.90;4.47;;;;;;;9.75;82.00;98768.28;5106669;28;20053;-61
2021/05/22 02:10:40;;;;;;;21.35;4.30;;;;;;;9.73;82.03;98765.75;5106675;28;20032;-62
2021/05/22 02:13:07;;;;;;;9.85;3.40;;;;;;;9.72;82.27;98758.03;5106840;28;20027;-61
2021/05/22 02:15:35;;;;;;;11.68;3.83;;;;;;;9.80;82.12;98763.81;5106524;28;20392;-62
2021/05/22 02:18:04;;;;;;;14.68;3.88;;;;;;;9.88;81.84;98763.56;5106518;28;20546;-62
2021/05/22 02:20:32;;;;;;;14.02;4.65;;;;;;;9.78;82.14;98768.19;5106298;28;20060;-61
2021/05/22 02:23:00;;;;;;;11.45;3.63;;;;;;;9.83;82.13;98765.47;5106089;28;20476;-62
2021/05/22 02:25:26;;;;;;;18.67;4.72;;;;;;;9.74;82.56;98759.69;5106587;28;20015;-62
2021/05/22 02:27:52;;;;;;;18.77;5.03;;;;;;;9.75;82.65;98757.94;5106011;28;20035;-63
2021/05/22 02:30:19;;;;;;;15.68;4.70;;;;;;;9.76;82.89;98762.25;5106364;28;20024;-63
2021/05/22 02:32:48;;;;;;;16.08;4.10;;;;;;;9.78;82.96;98768.19;5121854;28;20055;-62
2021/05/22 02:35:15;;;;;;;15.70;4.47;;;;;;;9.78;83.05;98768.19;5106210;28;20054;-63
2021/05/22 02:37:40;;;;;;;19.45;5.18;;;;;;;9.82;83.02;98775.00;5105851;28;20100;-63
2021/05/22 02:40:12;;;;;;;14.57;4.82;;;;;;;9.84;83.17;98769.78;5106182;28;20028;-63
2021/05/22 02:42:38;;;;;;;;;;;;;;;9.95;82.73;98767.69;5106502;28;20031;-63
2021/05/22 02:45:07;;;;;;;16.33;4.35;;;;;;;9.89;82.69;98775.63;5106246;28;19931;-64
2021/05/22 02:47:34;;;;;;;13.90;3.50;;;;;;;9.76;83.08;98768.25;5106032;28;20024;-65
2021/05/22 02:50:10;;;;;;;13.48;3.33;;;;;;;9.77;83.25;98775.16;5105917;28;20077;-65
2021/05/22 02:52:38;;;;;;;12.75;4.55;;;;;;;9.76;83.22;98772.59;5105817;28;20024;-64
2021/05/22 02:55:09;;;;;;;10.27;3.35;;;;;;;9.81;83.08;98781.06;5121223;28;20594;-64
2021/05/22 02:57:35;;;;;;;12.80;3.25;;;;;;;9.84;83.08;98773.19;5105992;28;20047;-65
2021/05/22 03:00:03;;;;;;;17.50;3.47;;;;;;;9.83;82.85;98768.91;5105925;28;20024;-65
2021/05/22 03:02:29;;;;;;;13.23;3.47;;;;;;;9.92;82.41;98784.16;5105773;28;20026;-66
2021/05/22 03:04:55;;;;;;;8.82;3.25;;;;;;;9.90;82.54;98772.16;5105833;28;20051;-64
2021/05/22 03:07:21;;;;;;;13.57;2.70;;;;;;;9.90;82.21;98775.59;5105159;28;20016;-65
2021/05/22 03:09:47;;;;;;;13.70;3.00;;;;;;;9.90;82.11;98780.75;5121209;28;20055;-65
2021/05/22 03:12:20;;;;;;;17.85;4.00;;;;;;;9.82;82.51;98780.19;5105604;28;20044;-65
2021/05/22 03:14:45;;;;;;;10.40;2.90;;;;;;;9.82;82.65;98780.19;5105437;28;20027;-66
2021/05/22 03:17:11;;;;;;;10.77;2.78;;;;;;;9.82;82.70;98776.72;5105551;28;20016;-65
2021/05/22 03:19:36;;;;;;;12.63;2.95;;;;;;;9.87;82.12;98786.03;5105438;28;20481;-66
2021/05/22 03:22:01;;;;;;;11.13;2.60;;;;;;;9.81;82.52;98778.47;5105198;28;20503;-65
2021/05/22 03:24:27;;;;;;;12.90;2.88;;;;;;;9.85;82.28;98787.88;5105010;28;20028;-65
2021/05/22 03:26:53;;;;;;;14.57;3.10;;;;;;;9.82;82.26;98775.00;5104763;28;20031;-65
2021/05/22 03:29:19;;;;;;;13.10;3.20;;;;;;;9.84;82.23;98780.13;5104918;28;20050;-65
2021/05/22 03:31:44;;;;;;;13.07;3.03;;;;;;;9.84;82.04;98777.53;5104733;28;20016;-63
2021/05/22 03:34:09;;;;;;;15.73;3.28;;;;;;;9.83;81.91;98778.41;5104893;28;20032;-64
2021/05/22 03:36:35;;;;;;;15.20;2.65;;;;;;;9.78;81.95;98771.66;5104797;28;20107;-65
2021/05/22 03:39:00;;;;;;;8.75;2.75;;;;;;;9.73;82.14;98778.72;5103863;28;20020;-65
2021/05/22 03:41:26;;;;;;;15.23;3.28;;;;;;;9.64;82.49;98779.00;5104648;28;20023;-63
2021/05/22 03:43:51;;;;;;;24.45;4.53;;;;;;;9.51;82.92;98778.53;5104516;28;20267;-63
2021/05/22 03:46:16;;;;;;;15.07;3.00;;;;;;;9.49;83.31;98782.94;5104597;28;20036;-64
2021/05/22 03:48:42;;;;;;;12.00;3.40;;;;;;;9.50;83.51;98788.06;5104628;28;20111;-64
2021/05/22 03:51:07;;;;;;;27.90;4.50;;;;;;;9.55;83.21;98793.09;5104298;28;20024;-65
2021/05/22 03:53:32;;;;;;;19.45;4.05;;;;;;;9.50;83.56;98789.78;5104211;28;20035;-64
2021/05/22 03:55:58;;;;;;;18.20;4.55;;;;;;;9.49;83.78;98793.28;5104438;28;20060;-64
2021/05/22 03:58:23;;;;;;;19.63;3.58;;;;;;;9.47;84.08;98793.34;5104602;28;20075;-64
2021/05/22 04:00:48;;;;;;;24.27;3.95;;;;;;;9.47;84.05;98793.34;5104331;28;20020;-63
2021/05/22 04:03:14;;;;;;;15.82;4.18;;;;;;;9.50;83.82;98790.66;5104477;28;20024;-64
2021/05/22 04:05:39;;;;;;;11.50;4.25;;;;;;;9.58;83.85;98795.59;5104339;28;20024;-64
2021/05/22 04:08:05;;;;;;;24.80;3.63;;;;;;;9.60;83.91;98800.72;5104118;28;20024;-64
2021/05/22 04:10:30;;;;;;;16.27;3.92;;;;;;;9.60;83.93;98800.72;5104514;28;20380;-64
2021/05/22 04:12:56;;;;;;;25.65;4.70;;;;;;;9.59;84.02;98794.69;5104464;28;20027;-63
2021/05/22 04:15:21;;;;;;;23.55;4.80;;;;;;;9.67;83.87;98799.63;5104179;28;20479;-64
2021/05/22 04:17:47;;;;;;;21.52;4.63;;;;;;;9.66;83.93;98796.19;5104152;28;20030;-64
2021/05/22 04:20:13;;;;;;;19.42;4.35;;;;;;;9.70;83.89;98796.09;5104001;28;20039;-64
2021/05/22 04:22:38;;;;;;;19.75;3.92;;;;;;;9.63;83.89;98803.22;5103852;28;20035;-65
2021/05/22 04:25:04;;;;;;;16.48;3.65;;;;;;;9.66;83.74;98803.97;5104237;28;20020;-65
2021/05/22 04:27:30;;;;;;;19.10;4.00;;;;;;;9.66;84.10;98797.94;5103930;28;20119;-65
2021/05/22 04:29:56;;;;;;;16.63;5.43;;;;;;;9.61;83.88;98805.00;5104061;28;20020;-67
2021/05/22 04:32:21;;;;;;;17.17;3.85;;;;;;;9.59;83.66;98806.78;5103775;28;20035;-67
2021/05/22 04:34:46;;;;;;;17.30;4.32;;;;;;;9.54;83.84;98809.53;5103866;28;20027;-67
2021/05/22 04:37:12;;;;;;;18.88;4.53;;;;;;;9.39;84.30;98796.13;5103714;28;20460;-66
2021/05/22 04:39:37;;;;;;;19.58;5.05;;;;;;;9.45;84.35;98807.22;5103535;28;20024;-66
2021/05/22 04:42:03;;;;;;;14.00;4.47;;;;;;;9.48;84.29;98807.97;5103676;28;20031;-65
2021/05/22 04:44:29;;;;;;;20.55;4.63;;;;;;;9.52;83.82;98806.97;5103771;28;20057;-63
2021/05/22 04:46:54;;;;;;;24.40;5.30;;;;;;;9.45;84.38;98809.78;5103398;28;20043;-63
2021/05/22 04:49:20;;;;;;;16.02;5.07;;;;;;;9.51;84.08;98805.28;5119151;28;20074;-62
2021/05/22 04:51:45;;;;;;;17.00;5.25;;;;;;;9.57;84.06;98809.44;5103210;28;20055;-61
2021/05/22 04:54:11;;;;;;;15.65;3.42;;;;;;;9.55;84.13;98811.25;5103279;28;20177;-61
2021/05/22 04:56:37;;;;;;;15.85;3.42;;;;;;;9.52;84.00;98803.56;5103367;28;20051;-61
2021/05/22 04:59:03;;;;;;;15.20;3.65;;;;;;;9.52;84.02;98804.38;5103176;28;20031;-61
2021/05/22 05:01:29;;;;;;;15.38;4.50;;;;;;;9.53;84.28;98793.16;5118924;28;20491;-60
2021/05/22 05:03:54;;;;;;;9.73;3.63;;;;;;;9.50;84.60;98803.59;5103499;28;20039;-60
2021/05/22 05:06:20;;;;;;;18.48;3.83;;;;;;;9.58;84.33;98795.59;5103380;28;20084;-60
2021/05/22 05:08:46;;;;;;;18.13;2.47;;;;;;;9.74;84.04;98805.47;5101929;28;20020;-60
2021/05/22 05:11:11;;;;;;;14.95;3.92;;;;;;;9.60;84.60;98795.56;5103378;28;20028;-60
2021/05/22 05:13:37;;;;;;;9.55;4.18;;;;;;;9.70;84.22;98801.28;5118973;28;20035;-60
2021/05/22 05:16:02;;;;;;;18.48;4.65;;;;;;;9.72;84.44;98804.69;5103129;28;20027;-60
2021/05/22 05:18:28;;;;;;;7.95;3.25;;;;;;;9.87;83.97;98808.56;5103438;28;20032;-61
2021/05/22 05:20:53;;;;;;;13.48;2.97;;;;;;;9.82;84.02;98800.91;5103409;28;20027;-60
2021/05/22 05:23:19;;;;;;;12.98;3.25;;;;;;;9.89;83.84;98811.91;5103362;28;20028;-60
2021/05/22 05:25:45;;;;;;;18.00;4.05;;;;;;;9.88;83.91;98805.06;5103600;28;20027;-60
2021/05/22 05:28:10;;;;;;;10.60;3.72;;;;;;;10.05;83.37;98812.28;5103253;28;20020;-62
2021/05/22 05:30:36;;;;;;;7.45;4.15;;;;;;;9.85;84.34;98808.59;5103754;28;20012;-61
2021/05/22 05:33:01;;;;;;;18.02;4.78;;;;;;;9.89;84.45;98807.59;5103276;28;20039;-61
2021/05/22 05:35:26;;;;;;;13.45;3.42;;;;;;;10.01;84.14;98814.16;5103409;28;20024;-61
2021/05/22 05:37:52;;;;;;;15.65;4.78;;;;;;;10.01;83.87;98808.97;5103099;28;20035;-61
2021/05/22 05:40:19;;;;;;;17.80;3.80;;;;;;;10.12;83.38;98815.53;5103471;28;20039;-61
2021/05/22 05:42:46;;;;;;;11.07;3.53;;;;;;;10.14;83.78;98811.97;5103431;28;20547;-61
2021/05/22 05:45:12;;;;;;;9.88;3.67;;;;;;;10.19;83.29;98805.81;5103439;28;20088;-61
2021/05/22 05:47:38;;;;;;;10.07;4.15;;;;;;;10.19;83.29;98816.19;5103211;28;20488;-61
2021/05/22 05:50:04;;;;;;;12.80;3.35;;;;;;;10.28;82.73;98813.28;5103418;28;20061;-60
2021/05/22 05:52:29;;;;;;;10.18;2.70;;;;;;;10.45;81.88;98817.09;5103096;28;20024;-60
2021/05/22 05:54:54;;;;;;;16.15;3.53;;;;;;;10.40;82.43;98818.06;5118616;28;20040;-61
2021/05/22 05:57:19;;;;;;;5.38;3.10;;;;;;;10.43;82.88;98813.69;5103322;28;20020;-61
2021/05/22 05:59:45;;;;;;;9.90;3.85;;;;;;;10.52;82.64;98818.59;5103364;28;20020;-62
2021/05/22 06:02:10;;;;;;;5.13;2.58;;;;;;;10.70;81.90;98808.50;5103303;28;20024;-61
2021/05/22 06:04:36;;;;;;;5.65;2.35;;;;;;;10.79;81.82;98808.16;5106832;28;20028;-62
2021/05/22 06:07:01;;;;;;;8.93;2.00;;;;;;;11.01;80.13;98800.44;5106716;28;20032;-63
2021/05/22 06:09:26;;;;;;;8.82;3.60;;;;;;;10.83;80.83;98808.91;5106707;28;20111;-63
2021/05/22 06:11:52;;;;;;;9.75;2.85;;;;;;;10.88;80.35;98807.84;5106663;28;20031;-64
2021/05/22 06:14:27;;;;;;;11.82;3.30;;;;;;;10.89;80.01;98806.09;5106694;28;20024;-64
2021/05/22 06:16:52;;;;;;;12.20;3.85;;;;;;;10.81;80.04;98806.38;5106389;28;20039;-63
2021/05/22 06:19:18;;;;;;;10.38;3.70;;;;;;;10.73;80.50;98805.78;5106522;28;20055;-63
2021/05/22 06:21:43;;;;;;;9.30;3.58;;;;;;;10.88;79.33;98801.78;5106266;28;20028;-63
2021/05/22 06:24:08;;;;;;;8.10;3.65;;;;;;;10.69;79.86;98812.81;5106138;28;20466;-63
2021/05/22 06:26:34;;;;;;;8.80;3.17;;;;;;;10.60;80.75;98811.41;5106588;28;20056;-63
2021/05/22 06:29:00;;;;;;;17.40;3.40;;;;;;;10.61;80.62;98818.28;5106283;28;20111;-64
2021/05/22 06:31:26;;;;;;;17.23;3.92;;;;;;;10.61;80.47;98818.28;5106094;28;20126;-64
2021/05/22 06:33:51;;;;;;;13.13;4.13;;;;;;;10.57;81.13;98816.69;5106318;28;20028;-63
2021/05/22 06:36:16;;;;;;;9.07;3.42;;;;;;;10.65;80.30;98812.06;5106007;28;20034;-65
2021/05/22 06:38:42;;;;;;;9.98;3.35;;;;;;;10.72;80.51;98819.66;5121610;28;20423;-65
2021/05/22 06:41:07;;;;;;;6.00;2.70;;;;;;;10.93;79.29;98822.41;5106030;28;20020;-64
2021/05/22 06:43:32;;;;;;;6.55;2.80;;;;;;;10.98;79.76;98820.47;5106015;28;20035;-64
2021/05/22 06:46:00;;;;;;;10.88;3.45;;;;;;;11.07;80.92;98825.34;5104527;28;20024;-64
2021/05/22 06:48:26;;;;;;;9.75;3.03;;;;;;;11.35;81.18;98823.50;5105848;28;20103;-65
2021/05/22 06:50:52;;;;;;;8.43;3.47;;;;;;;11.72;79.24;98816.06;5105707;28;20543;-65
2021/05/22 06:53:17;;;;;;;8.20;2.55;;;;;;;12.07;79.38;98820.75;5105380;28;20028;-64
2021/05/22 06:55:44;;;;;;;9.40;2.22;;;;;;;12.42;78.13;98830.66;5105580;28;20048;-64
2021/05/22 06:58:10;;;;;;;16.67;3.10;;;;;;;12.48;76.93;98820.00;5105609;28;20036;-64
2021/05/22 07:00:35;;;;;;;12.77;2.72;;;;;;;12.56;76.34;98817.06;5121063;28;20023;-65
2021/05/22 07:03:01;;;;;;;12.07;3.08;;;;;;;12.72;74.83;98830.28;5105611;28;20046;-65
2021/05/22 07:05:26;;;;;;;8.27;2.38;;;;;;;12.80;74.97;98825.59;5105812;28;20012;-64
2021/05/22 07:07:51;;;;;;;10.63;2.95;;;;;;;12.98;74.17;98825.72;5105400;28;20112;-64
2021/05/22 07:10:17;;;;;;;8.75;2.75;;;;;;;13.13;74.80;98827.63;5105668;28;20082;-64
2021/05/22 07:12:42;;;;;;;12.35;3.10;;;;;;;13.35;73.90;98826.69;5105556;28;20076;-63
2021/05/22 07:15:09;;;;;;;5.07;2.47;;;;;;;13.48;73.27;98837.38;5105495;28;20393;-64
2021/05/22 07:17:34;;;;;;;10.30;2.63;;;;;;;13.67;70.39;98825.28;5105338;28;20023;-64
2021/05/22 07:20:00;;;;;;;8.65;2.53;;;;;;;13.60;70.87;98820.38;5105642;28;20035;-64
2021/05/22 07:22:26;;;;;;;6.40;2.08;;;;;;;13.97;67.57;98823.00;5105279;28;20024;-64
2021/05/22 07:24:52;;;;;;;13.00;3.30;;;;;;;13.83;67.89;98821.06;5105005;28;20543;-64
2021/05/22 07:27:18;;;;;;;12.48;2.30;;;;;;;13.75;68.56;98829.22;5105322;28;20091;-65
2021/05/22 07:29:49;;;;;;;9.98;2.28;;;;;;;13.68;68.88;98832.19;5103737;28;20024;-64
2021/05/22 07:32:15;;;;;;;11.40;2.88;;;;;;;13.63;68.73;98830.66;5105049;28;20021;-64
2021/05/22 07:34:40;;;;;;;16.63;2.53;;;;;;;13.56;68.31;98834.44;5103696;28;20026;-63
2021/05/22 07:37:06;;;;;;;10.40;2.60;;;;;;;13.50;68.25;98829.47;5104890;28;20024;-64
2021/05/22 07:39:32;;;;;;;5.65;2.20;;;;;;;13.45;67.49;98826.25;5104799;28;20086;-64
2021/05/22 07:41:58;;;;;;;7.10;2.10;;;;;;;13.46;67.43;98820.97;5104674;28;20535;-64
2021/05/22 07:44:23;;;;;;;9.15;2.38;;;;;;;13.55;67.22;98834.50;5104919;28;20419;-64
2021/05/22 07:46:49;;;;;;;7.20;1.90;;;;;;;13.78;64.19;98828.25;5104700;28;20020;-67
2021/05/22 07:49:14;;;;;;;9.65;2.08;;;;;;;13.86;62.90;98826.13;5120674;28;20075;-65
2021/05/22 07:51:41;;;;;;;9.60;1.98;;;;;;;13.90;62.87;98824.19;5120128;28;20024;-65
2021/05/22 07:54:06;;;;;;;15.25;2.28;;;;;;;14.13;62.00;98832.69;5104723;28;20088;-65
2021/05/22 07:56:31;;;;;;;14.75;1.80;;;;;;;14.19;60.16;98831.53;5104847;28;20041;-65
2021/05/22 07:58:57;;;;;;;10.45;2.83;;;;;;;14.20;60.14;98828.84;5104723;28;20024;-66
2021/05/22 08:01:22;;;;;;;10.50;2.25;;;;;;;14.83;59.84;98837.09;5120282;28;20024;-65
2021/05/22 08:03:47;;;;;;;10.98;2.55;;;;;;;15.27;57.58;98832.22;5104720;28;20032;-65
2021/05/22 08:06:13;;;;;;;11.13;3.45;;;;;;;15.14;55.72;98824.22;5104447;28;20027;-66
2021/05/22 08:08:38;;;;;;;9.70;1.52;;;;;;;14.89;56.04;98829.88;5104187;28;20028;-65
2021/05/22 08:11:03;;;;;;;15.55;2.20;;;;;;;14.80;56.20;98837.25;5104616;28;20512;-66
2021/05/22 08:13:31;;;;;;;8.63;2.10;;;;;;;15.44;56.88;98827.88;5104350;28;20048;-65
2021/05/22 08:15:56;;;;;;;6.07;1.70;;;;;;;16.60;52.67;98823.16;5104155;28;20027;-66
2021/05/22 08:18:22;;;;;;;11.07;1.88;;;;;;;17.60;50.98;98832.09;5104356;28;20027;-66
2021/05/22 08:20:48;;;;;;;8.32;1.85;;;;;;;18.49;49.44;98836.06;5104332;28;20043;-66
2021/05/22 08:23:13;;;;;;;7.00;1.88;;;;;;;19.48;47.79;98828.50;5103888;28;20028;-66
2021/05/22 08:25:38;;;;;;;7.95;1.80;;;;;;;19.84;44.87;98833.84;5103776;28;20114;-64
2021/05/22 08:28:04;;;;;;;8.75;1.77;;;;;;;20.18;44.34;98820.03;5103922;28;20020;-64
2021/05/22 08:30:29;;;;;;;12.30;2.97;;;;;;;20.77;43.47;98826.16;5104153;28;20024;-64
2021/05/22 08:32:55;;;;;;;6.20;1.42;;;;;;;21.06;41.62;98835.47;5104225;28;20031;-64
2021/05/22 08:35:20;;;;;;;7.80;2.13;;;;;;;;;;5103910;28;20077;-64
2021/05/22 08:37:46;;;;;;;7.72;1.92;;;;;;;22.27;38.34;98825.03;5103646;28;20084;-65
2021/05/22 08:40:12;;;;;;;10.88;2.00;;;;;;;21.89;35.27;98837.78;5103978;28;20028;-65
2021/05/22 08:42:37;;;;;;;3.95;1.30;;;;;;;21.25;36.58;98842.78;5103850;28;20020;-66
2021/05/22 08:45:15;;;;;;;8.73;1.50;;;;;;;20.95;36.82;98838.09;5104033;28;20109;-65
2021/05/22 08:47:42;;;;;;;7.50;1.55;;;;;;;20.38;37.16;98838.78;5103726;28;20087;-65
2021/05/22 08:50:10;;;;;;;8.45;2.20;;;;;;;19.67;37.83;98843.81;5103924;28;20049;-65
2021/05/22 08:52:35;;;;;;;10.70;3.42;;;;;;;19.19;39.30;98849.78;5103687;28;20032;-65
2021/05/22 08:55:03;;;;;;;9.27;1.80;;;;;;;18.82;39.13;98845.25;5103269;28;20103;-65
2021/05/22 08:57:28;;;;;;;6.47;1.80;;;;;;;18.74;39.71;98845.78;5103621;28;20044;-67
2021/05/22 08:59:54;;;;;;;8.35;1.70;;;;;;;19.26;39.40;98850.22;5104128;28;20031;-64
2021/05/22 09:02:25;;;;;;;2.42;1.05;;;;;;;19.28;37.49;98843.88;5103576;28;20514;-65
2021/05/22 09:05:11;;;;;;;9.30;1.50;;;;;;;19.22;37.93;98851.41;5103652;28;20048;-65
2021/05/22 09:07:48;;;;;;;7.40;1.83;;;;;;;19.02;37.66;98841.28;5103564;28;20341;-66
2021/05/22 09:10:30;;;;;;;9.50;2.00;;;;;;;18.72;37.93;98852.94;5103700;28;20057;-66
2021/05/22 09:12:58;;;;;;;11.02;1.85;;;;;;;18.16;39.14;98844.28;5103700;28;20020;-65
2021/05/22 09:15:35;;;;;;;5.57;1.30;;;;;;;17.64;39.92;98845.81;5103399;28;20019;-65
2021/05/22 09:18:05;;;;;;;10.07;1.33;;;;;;;17.19;41.54;98854.69;5118987;28;20087;-66
2021/05/22 09:20:30;;;;;;;5.88;1.67;;;;;;;16.97;42.27;98840.22;5102108;28;20028;-65
2021/05/22 09:22:56;;;;;;;6.43;1.83;;;;;;;16.73;42.91;98844.25;5103177;28;20028;-65
2021/05/22 09:25:21;;;;;;;7.82;1.88;;;;;;;16.58;43.29;98839.91;5103623;28;20031;-66
2021/05/22 09:27:46;;;;;;;5.93;1.83;;;;;;;16.49;43.69;98836.03;5103484;28;20240;-66
2021/05/22 09:30:15;;;;;;;11.48;1.88;;;;;;;16.26;43.84;98833.00;5103671;28;20336;-66
2021/05/22 09:32:41;;;;;;;7.72;1.92;;;;;;;16.04;44.94;98842.06;5103459;28;20023;-66
2021/05/22 09:35:09;;;;;;;6.63;1.42;;;;;;;16.00;45.81;98840.53;5103340;28;20024;-66
2021/05/22 09:37:58;;;;;;;9.73;1.38;;;;;;;16.48;45.83;98829.13;5102847;28;20020;-66
2021/05/22 09:40:28;;;;;;;6.85;1.92;;;;;;;16.90;44.67;98836.31;5107369;28;20019;-65
2021/05/22 09:42:54;;;;;;;7.43;1.55;;;;;;;17.01;42.98;98833.88;5107426;28;20081;-66
2021/05/22 09:45:24;;;;;;;7.05;2.03;;;;;;;16.98;43.01;98824.41;5107334;28;20043;-66
2021/05/22 09:47:49;;;;;;;8.90;1.75;;;;;;;17.40;43.52;98831.53;5105676;28;20107;-66
2021/05/22 09:50:30;;;;;;;7.15;1.60;;;;;;;17.55;42.03;98832.38;5107116;28;20337;-65
2021/05/22 09:52:56;;;;;;;5.75;1.55;;;;;;;18.01;39.95;98822.47;5106694;28;20240;-66
2021/05/22 09:55:22;;;;;;;4.97;1.40;;;;;;;17.49;40.63;98814.41;5106731;28;20527;-64
2021/05/22 09:57:50;;;;;;;6.22;1.67;;;;;;;17.02;42.79;98832.09;5107033;28;20103;-66
2021/05/22 10:00:26;;;;;;;13.80;2.50;;;;;;;16.85;43.52;98828.72;5106855;28;20020;-66
2021/05/22 10:02:57;;;;;;;5.68;1.80;;;;;;;16.63;43.76;98829.16;5106605;28;20020;-66
2021/05/22 10:05:26;;;;;;;4.47;1.50;;;;;;;16.64;44.72;98836.91;5106643;28;20020;-65
2021/05/22 10:07:53;;;;;;;10.77;2.30;;;;;;;16.87;44.47;98828.63;5106113;28;20024;-66
2021/05/22 10:10:20;;;;;;;8.40;2.17;;;;;;;17.43;42.63;98822.63;5106887;28;20034;-66
2021/05/22 10:12:46;;;;;;;7.63;1.90;;;;;;;17.44;43.23;98825.16;5106391;28;20027;-66
2021/05/22 10:15:17;;;;;;;3.33;1.42;;;;;;;18.04;40.91;98827.53;5106601;28;20024;-65
2021/05/22 10:17:43;;;;;;;4.88;1.13;;;;;;;17.75;41.17;98819.75;5106476;28;20031;-65
2021/05/22 10:20:10;;;;;;;10.93;2.60;;;;;;;17.24;40.16;98823.78;5106743;28;20020;-65
2021/05/22 10:22:36;;;;;;;8.02;2.38;;;;;;;16.53;41.96;98819.22;5105028;28;20083;-65
2021/05/22 10:25:06;;;;;;;6.95;1.48;;;;;;;16.59;44.42;98828.47;5106133;28;20047;-67
2021/05/22 10:27:33;;;;;;;5.22;1.50;;;;;;;17.32;42.43;98831.16;5106255;28;20655;-66
2021/05/22 10:29:59;;;;;;;13.20;2.40;;;;;;;17.19;40.87;98828.44;5106561;28;20047;-66
2021/05/22 10:32:27;;;;;;;10.20;2.80;;;;;;;16.69;41.65;98834.03;5122009;28;20111;-66
2021/05/22 10:34:54;;;;;;;7.25;2.00;;;;;;;16.32;42.99;98827.41;5106264;28;20048;-66
2021/05/22 10:37:49;;;;;;;9.98;2.08;;;;;;;16.28;43.59;98828.50;5106107;28;20024;-66
2021/05/22 10:40:17;;;;;;;10.65;1.95;;;;;;;15.93;44.58;98824.31;5120542;28;20040;-66
2021/05/22 10:42:48;;;;;;;8.30;2.13;;;;;;;15.65;45.33;98835.47;5106001;28;20518;-65
2021/05/22 10:45:26;;;;;;;10.20;1.92;;;;;;;15.57;45.23;98822.81;5106411;28;20035;-65
2021/05/22 10:47:51;;;;;;;8.60;1.80;;;;;;;15.67;46.51;98841.47;5105905;28;20038;-66
2021/05/22 10:50:40;;;;;;;6.60;1.50;;;;;;;16.50;44.52;98829.88;5105674;28;20150;-65
2021/05/22 10:53:32;;;;;;;4.70;1.23;;;;;;;17.83;39.86;98821.88;5121173;28;20058;-64
2021/05/22 10:56:15;;;;;;;5.95;1.38;;;;;;;17.67;38.25;98808.88;5102655;28;20040;-64
2021/05/22 10:59:01;;;;;;;4.85;1.27;;;;;;;17.06;39.08;98826.56;5105690;28;20102;-64
2021/05/22 11:01:29;;;;;;;10.75;2.50;;;;;;;16.31;42.09;98830.94;5105678;28;20052;-66
2021/05/22 11:04:14;;;;;;;4.88;1.40;;;;;;;16.40;43.69;98828.72;5121335;28;20042;-65
2021/05/22 11:06:49;;;;;;;7.25;1.70;;;;;;;16.88;43.35;98825.91;5121449;28;20407;-65
2021/05/22 11:09:36;;;;;;;8.52;1.90;;;;;;;16.77;43.59;98823.94;5105485;28;20028;-66
2021/05/22 11:12:34;;;;;;;6.45;1.60;;;;;;;16.78;43.73;98830.84;5105505;28;20024;-66
2021/05/22 11:14:59;;;;;;;6.45;1.88;;;;;;;16.79;43.26;98832.53;5105345;28;20054;-64
2021/05/22 11:17:29;;;;;;;10.20;2.15;;;;;;;16.84;43.81;98833.09;5105163;28;20028;-63
2021/05/22 11:19:57;;;;;;;10.63;2.28;;;;;;;16.90;42.99;98831.88;5105331;28;20035;-64
2021/05/22 11:22:24;;;;;;;10.85;2.10;;;;;;;16.78;44.92;98835.25;5105215;28;20092;-66
2021/05/22 11:25:09;;;;;;;7.45;1.80;;;;;;;16.50;46.48;98844.75;5105295;28;20027;-66
2021/05/22 11:28:05;;;;;;;9.07;2.33;;;;;;;16.18;48.29;98846.50;5120817;28;20031;-65
2021/05/22 11:30:30;;;;;;;13.02;2.10;;;;;;;15.92;49.08;98853.19;5105067;28;20023;-65
2021/05/22 11:32:58;;;;;;;6.22;1.90;;;;;;;15.72;49.62;98844.66;5104885;28;20104;-65